createdAt,value
2023-02-05T00:02:56.670Z,99729.02
2023-02-05T00:06:01.595Z,99739.52
2023-02-05T00:09:05.655Z,99744.23
2023-02-05T00:12:09.665Z,99738.91
2023-02-05T00:15:13.370Z,99741.33
2023-02-05T00:18:18.725Z,99742.52
2023-02-05T00:21:22.607Z,99743.22
2023-02-05T00:24:51.892Z,99742.52
2023-02-05T00:27:54.457Z,99740.27
2023-02-05T00:30:59.161Z,99742.37
2023-02-05T00:34:02.043Z,99745.98
2023-02-05T00:37:11.675Z,99743.55
2023-02-05T00:40:14.184Z,99747.52
2023-02-05T00:43:20.479Z,99748.23
2023-02-05T00:46:27.317Z,99754.80
2023-02-05T00:49:31.453Z,99753.23
2023-02-05T00:52:34.124Z,99750.98
2023-02-05T00:55:37.918Z,99750.13
2023-02-05T00:58:40.503Z,99746.30
2023-02-05T01:01:43.493Z,99748.21
2023-02-05T01:04:45.468Z,99746.18
2023-02-05T01:07:48.794Z,99743.96
2023-02-05T01:10:52.725Z,99741.55
2023-02-05T01:13:54.737Z,99742.20
2023-02-05T01:16:58.326Z,99741.31
2023-02-05T01:20:02.250Z,99743.27
2023-02-05T01:23:05.346Z,99744.38
2023-02-05T01:26:11.100Z,99742.48
2023-02-05T01:41:02.245Z,99745.24
2023-02-05T01:44:18.875Z,99747.00
2023-02-05T01:47:23.774Z,99746.09
2023-02-05T01:50:32.825Z,99750.23
2023-02-05T01:53:37.634Z,99751.13
2023-02-05T01:56:46.484Z,99752.16
2023-02-05T01:59:53.235Z,99752.33
2023-02-05T02:02:59.295Z,99754.73
2023-02-05T02:06:05.132Z,99757.44
2023-02-05T02:09:12.503Z,99754.98
2023-02-05T02:12:24.873Z,99752.40
2023-02-05T02:15:31.894Z,99746.70
2023-02-05T02:18:39.573Z,99743.45
2023-02-05T02:22:22.270Z,99745.72
2023-02-05T02:25:39.417Z,99743.64
2023-02-05T02:29:01.104Z,99740.30
2023-02-05T02:32:37.576Z,99737.16
2023-02-05T02:35:58.456Z,99737.27
2023-02-05T02:39:42.836Z,99744.31
2023-02-05T02:43:05.302Z,99747.38
2023-02-05T02:46:22.432Z,99744.92
2023-02-05T02:49:48.103Z,99744.56
2023-02-05T02:52:55.499Z,99746.44
2023-02-05T02:56:01.124Z,99749.03
2023-02-05T02:59:15.596Z,99751.04
2023-02-05T03:02:20.461Z,99751.15
2023-02-05T03:05:29.958Z,99758.42
2023-02-05T03:08:54.856Z,99760.68
2023-02-05T03:12:00.485Z,99760.45
2023-02-05T03:15:07.393Z,99758.88
2023-02-05T03:18:14.573Z,99760.05
2023-02-05T03:21:23.924Z,99760.22
2023-02-05T03:24:29.286Z,99761.23
2023-02-05T03:27:34.055Z,99759.13
2023-02-05T03:30:50.649Z,99758.48
2023-02-05T03:34:12.283Z,99762.16
2023-02-05T03:37:35.206Z,99759.19
2023-02-05T03:41:05.353Z,99760.73
2023-02-05T03:44:23.148Z,99764.14
2023-02-05T03:47:26.330Z,99767.59
2023-02-05T03:50:32.254Z,99768.98
2023-02-05T03:53:43.138Z,99764.98
2023-02-05T03:57:05.220Z,99767.59
2023-02-05T04:00:12.880Z,99771.73
2023-02-05T04:03:20.136Z,99776.38
2023-02-05T04:06:23.863Z,99776.02
2023-02-05T04:09:29.620Z,99781.02
2023-02-05T04:12:33.523Z,99772.89
2023-02-05T04:15:39.191Z,99775.77
2023-02-05T04:18:47.780Z,99777.84
2023-02-05T04:21:51.784Z,99785.96
2023-02-05T04:24:57.901Z,99787.11
2023-02-05T04:28:03.410Z,99788.12
2023-02-05T04:31:12.826Z,99786.86
2023-02-05T04:34:18.803Z,99786.66
2023-02-05T04:37:25.154Z,99785.80
2023-02-05T04:40:30.094Z,99787.01
2023-02-05T04:43:35.487Z,99788.23
2023-02-05T04:46:39.812Z,99783.58
2023-02-05T04:49:44.473Z,99787.92
2023-02-05T04:52:47.890Z,99789.28
2023-02-05T04:55:52.385Z,99793.79
2023-02-05T04:59:00.114Z,99793.45
2023-02-05T05:02:04.792Z,99792.78
2023-02-05T05:05:09.238Z,99788.81
2023-02-05T05:08:14.513Z,99796.38
2023-02-05T05:11:19.740Z,99794.59
2023-02-05T05:14:24.901Z,99797.43
2023-02-05T05:17:31.483Z,99807.40
2023-02-05T05:20:34.738Z,99806.81
2023-02-05T05:23:39.754Z,99806.44
2023-02-05T05:26:45.716Z,99805.94
2023-02-05T05:29:53.745Z,99810.09
2023-02-05T05:32:59.343Z,99807.29
2023-02-05T05:36:44.050Z,99804.11
2023-02-05T05:40:06.794Z,99806.02
2023-02-05T05:43:33.647Z,99811.05
2023-02-05T05:46:37.280Z,99814.03
2023-02-05T05:49:39.068Z,99817.48
2023-02-05T05:52:41.352Z,99829.64
2023-02-05T05:55:43.981Z,99834.10
2023-02-05T05:58:48.573Z,99831.98
2023-02-05T06:01:51.599Z,99829.46
2023-02-05T06:04:55.215Z,99826.98
2023-02-05T06:07:58.400Z,99830.41
2023-02-05T06:11:04.222Z,99831.91
2023-02-05T06:14:08.516Z,99838.08
2023-02-05T06:17:11.803Z,99841.10
2023-02-05T06:20:15.910Z,99843.31
2023-02-05T06:23:20.285Z,99852.98
2023-02-05T06:26:23.867Z,99852.79
2023-02-05T06:29:26.089Z,99857.11
2023-02-05T06:32:30.692Z,99856.61
2023-02-05T06:35:35.100Z,99856.41
2023-02-05T06:38:40.315Z,99862.05
2023-02-05T06:41:46.948Z,99866.66
2023-02-05T06:44:51.315Z,99866.89
2023-02-05T06:47:55.699Z,99872.23
2023-02-05T06:51:00.496Z,99876.71
2023-02-05T06:54:05.930Z,99880.96
2023-02-05T06:57:13.776Z,99882.95
2023-02-05T07:00:23.008Z,99883.84
2023-02-05T07:03:35.721Z,99884.52
2023-02-05T07:06:40.887Z,99887.09
2023-02-05T07:09:45.274Z,99884.29
2023-02-05T07:12:53.309Z,99885.02
2023-02-05T07:15:56.963Z,99888.09
2023-02-05T07:19:04.085Z,99896.54
2023-02-05T07:22:07.640Z,99899.29
2023-02-05T07:25:10.276Z,99902.69
2023-02-05T07:28:15.091Z,99905.54
2023-02-05T07:31:22.294Z,99902.15
2023-02-05T07:34:30.277Z,99899.85
2023-02-05T07:37:38.612Z,99901.67
2023-02-05T07:40:42.598Z,99898.10
2023-02-05T07:43:48.581Z,99897.45
2023-02-05T07:46:50.796Z,99896.06
2023-02-05T07:49:52.794Z,99892.31
2023-02-05T07:53:00.913Z,99896.70
2023-02-05T07:56:04.654Z,99902.80
2023-02-05T07:59:11.730Z,99909.52
2023-02-05T08:02:24.326Z,99909.20
2023-02-05T08:05:39.624Z,99913.17
2023-02-05T08:08:46.071Z,99912.75
2023-02-05T08:11:49.036Z,99915.62
2023-02-05T08:14:57.456Z,99917.67
2023-02-05T08:18:09.282Z,99915.65
2023-02-05T08:21:13.271Z,99917.70
2023-02-05T08:24:18.104Z,99927.88
2023-02-05T08:27:30.131Z,99931.96
2023-02-05T08:30:42.793Z,99937.23
2023-02-05T08:33:54.532Z,99943.92
2023-02-05T08:37:02.319Z,99941.92
2023-02-05T08:40:09.917Z,99939.52
2023-02-05T08:43:20.776Z,99944.79
2023-02-05T08:46:48.695Z,99945.46
2023-02-05T08:49:55.832Z,99943.11
2023-02-05T08:53:00.464Z,99946.17
2023-02-05T08:56:06.115Z,99945.36
2023-02-05T08:59:12.496Z,99948.11
2023-02-05T09:02:15.997Z,99955.09
2023-02-05T09:05:20.386Z,99959.04
2023-02-05T09:08:29.814Z,99955.20
2023-02-05T09:11:36.919Z,99954.14
2023-02-05T09:14:46.112Z,99961.77
2023-02-05T09:17:50.109Z,99955.86
2023-02-05T09:20:58.471Z,99955.40
2023-02-05T09:24:01.717Z,99955.69
2023-02-05T09:27:18.971Z,99953.88
2023-02-05T09:30:24.570Z,99950.09
2023-02-05T09:33:31.296Z,99947.34
2023-02-05T09:36:40.987Z,99945.47
2023-02-05T09:43:36.260Z,99943.52
2023-02-05T09:47:20.227Z,99948.60
2023-02-05T09:50:30.234Z,99948.48
2023-02-05T09:53:40.430Z,99948.02
2023-02-05T09:56:46.414Z,99950.08
2023-02-05T09:59:49.583Z,99955.45
2023-02-05T10:03:26.585Z,99955.45
2023-02-05T10:06:37.418Z,99952.61
2023-02-05T10:10:03.128Z,99956.55
2023-02-05T10:13:28.948Z,99963.30
2023-02-05T10:17:03.203Z,99965.30
2023-02-05T10:20:29.304Z,99975.41
2023-02-05T10:23:45.086Z,99974.73
2023-02-05T10:27:12.050Z,99978.27
2023-02-05T10:30:28.042Z,99978.04
2023-02-05T10:33:39.721Z,99976.95
2023-02-05T10:36:53.349Z,99977.29
2023-02-05T10:39:57.561Z,99977.71
2023-02-05T10:43:05.833Z,99981.13
2023-02-05T10:46:15.897Z,99986.33
2023-02-05T10:49:59.930Z,99995.45
2023-02-05T10:53:09.762Z,99996.42
2023-02-05T10:56:19.156Z,99994.30
2023-02-05T10:59:27.992Z,99996.34
2023-02-05T11:02:38.100Z,99997.29
2023-02-05T11:05:41.079Z,100000.16
2023-02-05T11:08:44.221Z,100000.50
2023-02-05T11:11:52.509Z,100003.35
2023-02-05T11:15:02.073Z,100007.73
2023-02-05T11:18:23.178Z,100006.52
2023-02-05T11:22:00.725Z,100005.28
2023-02-05T11:25:25.672Z,100003.14
2023-02-05T11:28:35.572Z,100004.37
2023-02-05T11:31:39.833Z,100011.98
2023-02-05T11:34:42.114Z,100014.14
2023-02-05T11:37:46.287Z,100011.86
2023-02-05T11:40:53.274Z,100016.68
2023-02-05T11:43:57.747Z,100017.36
2023-02-05T11:47:01.575Z,100019.88
2023-02-05T11:50:05.673Z,100017.77
2023-02-05T11:53:19.187Z,100020.55
2023-02-05T11:56:25.610Z,100023.02
2023-02-05T11:59:28.455Z,100025.55
2023-02-05T12:02:34.616Z,100025.51
2023-02-05T12:05:45.902Z,100028.14
2023-02-05T12:08:54.316Z,100034.27
2023-02-05T12:12:15.182Z,100036.45
2023-02-05T12:15:30.569Z,100035.11
2023-02-05T12:23:37.031Z,100037.67
2023-02-05T12:26:47.196Z,100042.67
2023-02-05T12:30:38.635Z,100038.61
2023-02-05T12:34:12.408Z,100038.69
2023-02-05T12:37:31.104Z,100043.63
2023-02-05T12:41:13.522Z,100050.76
2023-02-05T12:44:46.924Z,100047.13
2023-02-05T12:48:27.695Z,100050.34
2023-02-05T12:51:39.516Z,100054.42
2023-02-05T12:55:14.637Z,100055.08
2023-02-05T12:58:33.921Z,100058.04
2023-02-05T13:02:49.097Z,100056.21
2023-02-05T13:06:17.504Z,100056.40
2023-02-05T13:09:27.477Z,100057.19
2023-02-05T13:12:39.558Z,100058.40
2023-02-05T13:15:56.823Z,100060.51
2023-02-05T13:19:34.584Z,100060.30
2023-02-05T13:23:03.384Z,100058.88
2023-02-05T13:26:25.472Z,100065.10
2023-02-05T13:29:43.856Z,100069.83
2023-02-05T13:32:53.501Z,100077.14
2023-02-05T13:36:32.644Z,100076.36
2023-02-05T13:40:23.763Z,100077.33
2023-02-05T13:43:45.277Z,100078.64
2023-02-05T13:47:26.121Z,100081.56
2023-02-05T13:51:10.949Z,100087.89
2023-02-05T13:55:07.728Z,100091.23
2023-02-05T13:58:27.688Z,100091.34
2023-02-05T14:01:44.061Z,100092.40
2023-02-05T14:04:54.056Z,100093.53
2023-02-05T14:08:04.496Z,100101.14
2023-02-05T14:11:23.087Z,100105.48
2023-02-05T14:14:34.631Z,100108.22
2023-02-05T14:17:43.648Z,100113.81
2023-02-05T14:20:48.843Z,100112.98
2023-02-05T14:24:00.711Z,100113.75
2023-02-05T14:27:47.210Z,100120.00
2023-02-05T14:35:40.644Z,100119.77
2023-02-05T14:38:53.346Z,100123.59
2023-02-05T14:42:01.706Z,100127.06
2023-02-05T14:45:14.823Z,100129.95
2023-02-05T14:48:30.891Z,100136.41
2023-02-05T14:51:50.490Z,100135.05
2023-02-05T14:55:15.222Z,100135.03
2023-02-05T14:58:24.034Z,100138.52
2023-02-05T15:01:54.348Z,100140.40
2023-02-05T15:05:02.987Z,100147.84
2023-02-05T15:08:26.565Z,100151.98
2023-02-05T15:11:57.489Z,100156.02
2023-02-05T15:15:39.000Z,100156.28
2023-02-05T15:18:48.017Z,100160.05
2023-02-05T15:21:53.281Z,100160.65
2023-02-05T15:24:58.359Z,100160.48
2023-02-05T15:28:21.752Z,100167.04
2023-02-05T15:31:45.605Z,100173.64
2023-02-05T15:34:56.916Z,100177.42
2023-02-05T15:38:16.358Z,100173.88
2023-02-05T15:41:24.565Z,100176.77
2023-02-05T15:44:33.617Z,100180.86
2023-02-05T15:47:43.405Z,100182.00
2023-02-05T15:51:31.228Z,100183.38
2023-02-05T15:54:37.074Z,100192.95
2023-02-05T15:57:42.359Z,100196.27
2023-02-05T16:00:52.101Z,100203.84
2023-02-05T16:03:57.900Z,100208.63
2023-02-05T16:07:17.111Z,100208.41
2023-02-05T16:10:33.305Z,100213.77
2023-02-05T16:13:42.907Z,100216.18
2023-02-05T16:17:18.483Z,100220.39
2023-02-05T16:21:03.058Z,100224.36
2023-02-05T16:24:22.312Z,100227.13
2023-02-05T16:27:58.576Z,100231.41
2023-02-05T16:31:04.371Z,100235.85
2023-02-05T16:34:22.448Z,100238.06
2023-02-05T16:37:30.697Z,100242.00
2023-02-05T16:40:45.980Z,100243.17
2023-02-05T16:43:53.471Z,100248.16
2023-02-05T16:47:24.104Z,100254.59
2023-02-05T16:50:40.825Z,100259.60
2023-02-05T16:53:49.783Z,100260.09
2023-02-05T16:57:33.202Z,100262.25
2023-02-05T17:00:43.268Z,100270.06
2023-02-05T17:04:00.796Z,100266.04
2023-02-05T17:07:17.064Z,100268.70
2023-02-05T17:10:24.969Z,100275.54
2023-02-05T17:13:49.163Z,100271.23
2023-02-05T17:17:22.030Z,100281.16
2023-02-05T17:20:50.394Z,100284.26
2023-02-05T17:24:09.615Z,100286.81
2023-02-05T17:27:40.846Z,100289.36
2023-02-05T17:30:54.596Z,100295.60
2023-02-05T17:34:06.818Z,100300.67
2023-02-05T17:37:14.862Z,100302.25
2023-02-05T17:40:24.979Z,100302.66
2023-02-05T17:43:30.942Z,100304.90
2023-02-05T19:49:03.768Z,100431.73
2023-02-05T19:52:28.958Z,100436.14
2023-02-05T19:56:12.906Z,100437.67
2023-02-05T19:59:53.983Z,100437.75
2023-02-05T20:06:46.643Z,100447.81
2023-02-05T20:09:53.956Z,100454.82
2023-02-05T20:13:04.972Z,100450.10
2023-02-05T20:16:21.831Z,100451.31
2023-02-05T20:19:26.162Z,100451.34
2023-02-05T20:22:30.020Z,100451.98
2023-02-05T20:25:41.600Z,100456.48
2023-02-05T20:29:11.202Z,100458.70
2023-02-05T20:32:21.683Z,100458.20
2023-02-05T20:35:28.916Z,100460.52
2023-02-05T20:38:47.717Z,100462.80
2023-02-05T20:42:23.614Z,100473.60
2023-02-05T20:45:32.960Z,100476.02
2023-02-05T20:48:42.528Z,100480.20
2023-02-05T20:51:52.611Z,100481.96
2023-02-05T20:55:02.272Z,100485.95
2023-02-05T20:58:11.513Z,100488.08
2023-02-05T21:01:23.489Z,100494.85
2023-02-05T21:04:35.850Z,100494.50
2023-02-05T21:07:48.658Z,100502.31
2023-02-05T21:10:53.226Z,100503.70
2023-02-05T21:14:18.227Z,100509.10
2023-02-05T21:17:31.796Z,100518.30
2023-02-05T21:20:42.277Z,100517.21
2023-02-05T21:23:47.631Z,100515.25
2023-02-05T21:26:51.989Z,100510.33
2023-02-05T21:29:56.408Z,100519.83
2023-02-05T21:33:04.078Z,100518.05
2023-02-05T21:36:21.916Z,100524.80
2023-02-05T21:39:50.881Z,100534.70
2023-02-05T21:42:57.009Z,100534.90
2023-02-05T21:46:06.508Z,100535.13
2023-02-05T21:49:12.708Z,100542.50
2023-02-05T21:52:17.725Z,100547.06
2023-02-05T21:55:27.606Z,100545.83
2023-02-05T21:58:38.621Z,100551.20
2023-02-05T22:01:46.893Z,100553.29
2023-02-05T22:04:58.088Z,100555.25
2023-02-05T22:08:06.548Z,100551.80
2023-02-05T22:11:11.340Z,100553.06
2023-02-05T22:14:17.003Z,100553.61
2023-02-05T22:17:22.431Z,100557.45
2023-02-05T22:20:30.143Z,100550.49
2023-02-05T22:23:33.971Z,100555.02
2023-02-05T22:26:39.527Z,100556.74
2023-02-05T22:29:42.193Z,100559.02
2023-02-05T22:32:52.281Z,100562.48
2023-02-05T22:35:55.672Z,100564.73
2023-02-05T22:38:59.881Z,100563.51
2023-02-05T22:42:13.191Z,100569.60
2023-02-05T22:45:21.106Z,100577.64
2023-02-05T22:48:30.656Z,100577.88
2023-02-05T22:51:39.098Z,100574.27
2023-02-05T22:54:43.208Z,100576.94
2023-02-05T22:57:47.202Z,100577.13
2023-02-05T23:00:51.160Z,100574.48
2023-02-05T23:03:54.515Z,100580.65
2023-02-05T23:06:58.599Z,100578.64
2023-02-05T23:10:04.039Z,100583.42
2023-02-05T23:13:07.366Z,100584.27
2023-02-05T23:16:22.512Z,100589.55
2023-02-05T23:19:28.612Z,100596.96
2023-02-05T23:22:32.372Z,100601.41
2023-02-05T23:25:37.822Z,100606.86
2023-02-05T23:28:42.153Z,100605.98
2023-02-05T23:31:49.135Z,100612.20
2023-02-05T23:34:53.733Z,100611.83
2023-02-05T23:38:03.265Z,100608.48
2023-02-05T23:41:06.993Z,100609.70
2023-02-05T23:44:21.232Z,100612.46
2023-02-05T23:47:29.890Z,100611.58
2023-02-05T23:50:33.560Z,100614.55
2023-02-05T23:53:39.552Z,100613.29
2023-02-05T23:56:49.267Z,100616.58
2023-02-05T23:59:57.626Z,100621.63
